createdAt,value
2022-11-28T00:01:24.169Z,41.28
2022-11-28T00:03:51.891Z,43.45
2022-11-28T00:06:19.793Z,35.80
2022-11-28T00:08:47.047Z,41.25
2022-11-28T00:11:16.193Z,37.40
2022-11-28T00:13:44.363Z,40.12
2022-11-28T00:16:18.458Z,40.58
2022-11-28T00:18:45.872Z,43.63
2022-11-28T00:21:14.405Z,43.70
2022-11-28T00:23:43.130Z,38.15
2022-11-28T00:26:16.439Z,41.70
2022-11-28T00:28:43.451Z,40.65
2022-11-28T00:31:15.691Z,41.55
2022-11-28T00:33:42.746Z,41.20
2022-11-28T00:36:10.618Z,39.53
2022-11-28T00:38:38.321Z,36.65
2022-11-28T00:41:07.474Z,34.35
2022-11-28T00:43:34.736Z,42.25
2022-11-28T00:46:02.841Z,47.03
2022-11-28T00:48:30.321Z,42.15
2022-11-28T00:51:08.570Z,45.83
2022-11-28T00:53:36.692Z,48.53
2022-11-28T00:56:05.726Z,36.35
2022-11-28T00:58:34.420Z,36.85
2022-11-28T01:01:10.950Z,35.60
2022-11-28T01:03:38.800Z,38.70
2022-11-28T01:06:06.902Z,27.45
2022-11-28T01:08:34.002Z,33.40
2022-11-28T01:11:01.151Z,32.55
2022-11-28T01:13:28.622Z,34.72
2022-11-28T01:15:55.782Z,30.02
2022-11-28T01:18:22.828Z,30.10
2022-11-28T01:20:50.106Z,33.20
2022-11-28T01:23:18.545Z,31.40
2022-11-28T01:25:45.541Z,29.52
2022-11-28T01:28:12.829Z,34.20
2022-11-28T01:30:39.836Z,27.35
2022-11-28T01:33:06.893Z,33.25
2022-11-28T01:35:34.207Z,37.35
2022-11-28T01:38:01.193Z,30.80
2022-11-28T01:40:28.232Z,43.17
2022-11-28T01:42:55.541Z,40.88
2022-11-28T01:45:25.214Z,30.95
2022-11-28T01:47:54.097Z,35.67
2022-11-28T01:50:22.320Z,31.92
2022-11-28T01:52:53.941Z,28.12
2022-11-28T01:55:24.391Z,30.75
2022-11-28T01:57:52.373Z,31.05
2022-11-28T02:00:20.437Z,27.20
2022-11-28T02:02:53.228Z,30.25
2022-11-28T02:05:21.441Z,29.48
2022-11-28T02:07:49.273Z,31.75
2022-11-28T02:10:28.280Z,29.20
2022-11-28T02:13:04.525Z,32.35
2022-11-28T02:16:05.037Z,26.58
2022-11-28T02:18:50.531Z,34.80
2022-11-28T02:21:34.204Z,26.65
2022-11-28T02:24:13.662Z,25.47
2022-11-28T02:27:06.875Z,28.77
2022-11-28T02:30:01.845Z,31.37
2022-11-28T02:32:44.152Z,28.75
2022-11-28T02:35:19.514Z,37.95
2022-11-28T02:37:58.064Z,33.58
2022-11-28T02:40:29.329Z,32.70
2022-11-28T02:43:08.964Z,35.60
2022-11-28T02:45:50.819Z,30.27
2022-11-28T02:48:54.896Z,35.03
2022-11-28T02:51:29.315Z,39.38
2022-11-28T02:56:25.418Z,48.30
2022-11-28T02:58:52.780Z,75.53
2022-11-28T03:01:24.405Z,85.40
2022-11-28T03:04:07.327Z,75.45
2022-11-28T03:07:07.721Z,53.65
2022-11-28T03:09:44.055Z,30.55
2022-11-28T03:12:21.679Z,33.80
2022-11-28T03:14:55.401Z,36.25
2022-11-28T03:17:31.256Z,36.88
2022-11-28T03:20:05.894Z,31.80
2022-11-28T03:23:02.094Z,36.70
2022-11-28T03:25:58.659Z,95.35
2022-11-28T03:28:40.569Z,58.28
2022-11-28T03:31:14.037Z,53.17
2022-11-28T03:33:45.523Z,38.50
2022-11-28T03:36:22.636Z,104.00
2022-11-28T03:38:54.243Z,55.03
2022-11-28T03:41:27.743Z,52.85
2022-11-28T03:43:56.827Z,37.08
2022-11-28T03:46:27.584Z,41.92
2022-11-28T03:48:58.911Z,28.10
2022-11-28T03:51:36.531Z,30.52
2022-11-28T03:54:08.862Z,32.83
2022-11-28T03:56:58.019Z,40.03
2022-11-28T03:59:29.576Z,33.25
2022-11-28T04:02:06.284Z,37.30
2022-11-28T04:05:05.632Z,30.75
2022-11-28T04:07:46.129Z,35.92
2022-11-28T04:10:37.283Z,39.55
2022-11-28T04:13:29.452Z,36.45
2022-11-28T04:16:24.051Z,32.08
2022-11-28T04:18:56.834Z,34.58
2022-11-28T04:21:26.818Z,32.58
2022-11-28T04:23:55.639Z,28.45
2022-11-28T04:26:27.936Z,32.33
2022-11-28T04:28:57.051Z,38.30
2022-11-28T04:31:24.957Z,31.35
2022-11-28T04:33:56.444Z,24.30
2022-11-28T04:36:24.733Z,33.63
2022-11-28T04:38:56.480Z,25.10
2022-11-28T04:41:30.256Z,28.60
2022-11-28T04:44:06.476Z,39.23
2022-11-28T04:46:43.356Z,31.83
2022-11-28T04:49:11.008Z,26.80
2022-11-28T04:51:41.312Z,34.08
2022-11-28T04:54:17.050Z,31.50
2022-11-28T04:56:54.456Z,35.85
2022-11-28T04:59:22.330Z,25.33
2022-11-28T05:01:50.066Z,30.10
2022-11-28T05:04:17.776Z,33.10
2022-11-28T05:06:45.322Z,28.40
2022-11-28T05:09:13.106Z,29.12
2022-11-28T05:11:40.224Z,29.83
2022-11-28T05:14:07.579Z,31.58
2022-11-28T05:16:35.328Z,32.13
2022-11-28T05:19:02.400Z,35.60
2022-11-28T05:21:29.411Z,35.08
2022-11-28T05:23:56.724Z,30.90
2022-11-28T05:26:24.116Z,32.00
2022-11-28T05:28:51.479Z,29.83
2022-11-28T05:31:21.242Z,32.30
2022-11-28T05:33:48.488Z,25.95
2022-11-28T05:36:16.617Z,30.80
2022-11-28T05:38:44.587Z,32.90
2022-11-28T05:41:19.819Z,29.05
2022-11-28T05:43:47.265Z,29.48
2022-11-28T05:46:14.717Z,28.23
2022-11-28T05:48:41.834Z,30.73
2022-11-28T05:51:09.315Z,32.78
2022-11-28T05:53:37.016Z,33.03
2022-11-28T05:56:11.833Z,39.72
2022-11-28T05:58:39.136Z,42.95
2022-11-28T06:01:26.766Z,35.47
2022-11-28T06:03:58.220Z,38.08
2022-11-28T06:06:26.161Z,32.58
2022-11-28T06:08:53.518Z,36.30
2022-11-28T06:11:22.011Z,36.65
2022-11-28T06:13:49.676Z,31.67
2022-11-28T06:16:20.090Z,38.22
2022-11-28T06:18:47.470Z,33.20
2022-11-28T06:21:15.956Z,32.58
2022-11-28T06:23:43.385Z,31.48
2022-11-28T06:26:12.810Z,36.30
2022-11-28T06:28:40.586Z,39.38
2022-11-28T06:31:16.405Z,28.20
2022-11-28T06:33:43.480Z,32.35
2022-11-28T06:36:11.842Z,38.70
2022-11-28T06:38:39.084Z,30.58
2022-11-28T06:41:08.461Z,31.40
2022-11-28T06:43:35.783Z,38.85
2022-11-28T06:46:02.879Z,30.00
2022-11-28T06:48:29.917Z,44.58
2022-11-28T06:51:05.477Z,34.05
2022-11-28T06:53:33.279Z,38.30
2022-11-28T06:56:11.468Z,23.92
2022-11-28T06:58:38.543Z,30.10
2022-11-28T07:01:18.134Z,29.80
2022-11-28T07:03:45.414Z,32.35
2022-11-28T07:06:13.960Z,34.10
2022-11-28T07:08:41.325Z,33.65
2022-11-28T07:11:14.077Z,35.22
2022-11-28T07:13:42.139Z,28.20
2022-11-28T07:16:14.453Z,35.42
2022-11-28T07:18:41.904Z,37.15
2022-11-28T07:21:09.344Z,35.65
2022-11-28T07:23:36.494Z,29.65
2022-11-28T07:26:04.928Z,36.50
2022-11-28T07:28:32.920Z,29.90
2022-11-28T07:31:14.843Z,31.20
2022-11-28T07:33:44.630Z,39.25
2022-11-28T07:36:14.185Z,28.80
2022-11-28T07:38:41.292Z,37.05
2022-11-28T07:41:11.696Z,37.53
2022-11-28T07:43:39.730Z,41.03
2022-11-28T07:46:08.594Z,30.73
2022-11-28T07:48:36.085Z,34.67
2022-11-28T07:51:11.706Z,38.70
2022-11-28T07:53:39.661Z,29.45
2022-11-28T07:56:09.404Z,37.20
2022-11-28T07:58:38.968Z,37.22
2022-11-28T08:01:10.909Z,35.13
2022-11-28T08:03:38.295Z,34.08
2022-11-28T08:06:06.366Z,38.05
2022-11-28T08:08:33.349Z,33.38
2022-11-28T08:11:02.025Z,32.33
2022-11-28T08:13:29.508Z,31.50
2022-11-28T08:15:56.634Z,30.17
2022-11-28T08:18:24.212Z,29.87
2022-11-28T08:20:51.483Z,30.12
2022-11-28T08:23:18.545Z,32.65
2022-11-28T08:25:45.932Z,30.80
2022-11-28T08:28:12.952Z,27.33
2022-11-28T08:30:40.151Z,28.27
2022-11-28T08:33:07.533Z,25.33
2022-11-28T08:35:34.776Z,29.30
2022-11-28T08:38:02.331Z,31.00
2022-11-28T08:40:29.668Z,26.12
2022-11-28T08:42:58.604Z,28.77
2022-11-28T08:45:25.589Z,24.30
2022-11-28T08:47:52.856Z,26.48
2022-11-28T08:50:19.861Z,25.60
2022-11-28T08:52:46.898Z,25.70
2022-11-28T08:55:14.193Z,36.03
2022-11-28T08:57:41.177Z,24.48
2022-11-28T09:00:08.671Z,24.63
2022-11-28T09:02:35.937Z,28.98
2022-11-28T09:05:02.986Z,27.08
2022-11-28T09:07:29.974Z,29.67
2022-11-28T09:09:57.489Z,28.67
2022-11-28T09:12:24.608Z,24.30
2022-11-28T09:14:51.598Z,28.45
2022-11-28T09:17:18.952Z,24.35
2022-11-28T09:19:46.066Z,31.73
2022-11-28T09:22:13.078Z,27.92
2022-11-28T09:24:40.408Z,37.22
2022-11-28T09:27:07.388Z,23.20
2022-11-28T09:29:34.398Z,27.37
2022-11-28T09:32:01.694Z,33.80
2022-11-28T09:34:28.710Z,30.27
2022-11-28T09:36:59.660Z,28.60
2022-11-28T09:39:44.092Z,25.80
2022-11-28T09:42:25.624Z,23.20
2022-11-28T09:44:57.236Z,21.08
2022-11-28T09:47:27.385Z,28.35
2022-11-28T09:50:14.981Z,27.85
2022-11-28T09:53:00.504Z,28.33
2022-11-28T09:55:32.360Z,30.30
2022-11-28T09:58:01.995Z,20.30
2022-11-28T10:00:36.479Z,22.90
2022-11-28T10:03:16.989Z,27.77
2022-11-28T10:05:55.420Z,28.33
2022-11-28T10:08:22.685Z,28.83
2022-11-28T10:11:24.538Z,30.08
2022-11-28T10:14:17.112Z,25.75
2022-11-28T10:16:55.834Z,25.10
2022-11-28T10:19:54.167Z,30.95
2022-11-28T10:22:52.339Z,22.17
2022-11-28T10:25:25.032Z,22.70
2022-11-28T10:27:52.277Z,26.15
2022-11-28T10:30:27.151Z,35.90
2022-11-28T10:33:12.348Z,28.33
2022-11-28T10:35:46.665Z,24.30
2022-11-28T10:38:15.023Z,32.75
2022-11-28T10:40:45.018Z,26.95
2022-11-28T10:43:19.851Z,25.42
2022-11-28T10:46:05.934Z,23.87
2022-11-28T10:48:45.838Z,21.42
2022-11-28T10:51:42.994Z,25.25
2022-11-28T10:54:47.457Z,30.92
2022-11-28T10:57:28.041Z,28.73
2022-11-28T11:00:14.023Z,31.37
2022-11-28T11:02:44.985Z,28.48
2022-11-28T11:05:15.198Z,32.60
2022-11-28T11:07:52.932Z,33.70
2022-11-28T11:10:40.889Z,31.17
2022-11-28T11:13:17.296Z,27.87
2022-11-28T11:15:45.876Z,31.90
2022-11-28T11:18:26.259Z,34.22
2022-11-28T11:21:15.664Z,39.03
2022-11-28T11:23:44.084Z,32.13
2022-11-28T11:26:23.761Z,27.70
2022-11-28T11:28:52.251Z,35.58
2022-11-28T11:31:31.233Z,34.05
2022-11-28T11:34:02.632Z,29.15
2022-11-28T11:36:35.675Z,35.47
2022-11-28T11:39:07.274Z,38.30
2022-11-28T11:41:34.588Z,29.90
2022-11-28T11:44:13.671Z,35.17
2022-11-28T11:47:05.012Z,28.98
2022-11-28T11:49:36.232Z,36.63
2022-11-28T11:52:15.667Z,37.40
2022-11-28T11:54:58.165Z,35.67
2022-11-28T11:57:33.281Z,33.28
2022-11-28T12:00:10.517Z,33.53
2022-11-28T12:02:46.018Z,37.75
2022-11-28T12:05:18.289Z,34.30
2022-11-28T12:08:08.180Z,32.85
2022-11-28T12:10:41.038Z,34.15
2022-11-28T12:13:18.153Z,34.38
2022-11-28T12:15:54.386Z,35.15
2022-11-28T12:18:45.664Z,34.10
2022-11-28T12:21:15.165Z,35.92
2022-11-28T12:24:15.506Z,29.98
2022-11-28T12:26:51.831Z,35.20
2022-11-28T12:32:00.055Z,32.05
2022-11-28T12:35:05.648Z,43.75
2022-11-28T12:38:12.574Z,30.90
2022-11-28T12:41:02.605Z,34.88
2022-11-28T12:43:51.358Z,35.95
2022-11-28T12:46:27.148Z,33.70
2022-11-28T12:48:58.585Z,36.78
2022-11-28T12:51:52.595Z,29.92
2022-11-28T12:54:40.667Z,37.50
2022-11-28T12:57:33.487Z,41.58
2022-11-28T13:00:10.915Z,35.60
2022-11-28T13:03:15.233Z,41.70
2022-11-28T13:05:48.983Z,33.95
2022-11-28T13:08:27.594Z,35.00
2022-11-28T13:11:23.702Z,35.22
2022-11-28T13:13:59.182Z,33.58
2022-11-28T13:16:42.493Z,35.75
2022-11-28T13:19:24.699Z,32.03
2022-11-28T13:22:19.742Z,36.85
2022-11-28T13:27:52.780Z,38.55
2022-11-28T13:30:22.612Z,36.08
2022-11-28T13:32:58.587Z,42.85
2022-11-28T13:35:27.841Z,37.05
2022-11-28T13:40:55.451Z,35.58
2022-11-28T13:43:46.472Z,39.00
2022-11-28T13:46:13.870Z,32.78
2022-11-28T13:51:32.520Z,38.88
2022-11-28T13:54:26.690Z,39.60
2022-11-28T13:57:09.629Z,39.03
2022-11-28T13:59:37.379Z,40.72
2022-11-28T14:02:21.089Z,36.20
2022-11-28T14:04:48.720Z,44.38
2022-11-28T14:07:30.928Z,39.58
2022-11-28T14:10:24.398Z,38.10
2022-11-28T14:13:33.283Z,43.95
2022-11-28T14:16:26.211Z,43.20
2022-11-28T14:18:57.601Z,40.30
2022-11-28T14:21:33.266Z,43.22
2022-11-28T14:24:05.803Z,42.85
2022-11-28T14:26:38.842Z,47.15
2022-11-28T14:29:08.118Z,47.15
2022-11-28T14:31:37.737Z,31.30
2022-11-28T14:34:06.831Z,45.80
2022-11-28T14:36:35.929Z,41.88
2022-11-28T14:39:16.318Z,42.53
2022-11-28T14:42:05.158Z,36.42
2022-11-28T14:44:54.723Z,41.78
2022-11-28T14:47:39.704Z,42.45
2022-11-28T14:50:08.016Z,46.10
2022-11-28T14:52:39.844Z,36.92
2022-11-28T14:55:09.135Z,42.42
2022-11-28T14:57:39.260Z,43.20
2022-11-28T15:00:17.074Z,40.60
2022-11-28T15:02:56.296Z,37.90
2022-11-28T15:05:50.047Z,43.25
2022-11-28T15:08:33.040Z,49.58
2022-11-28T15:11:09.704Z,39.58
2022-11-28T15:13:57.410Z,43.80
2022-11-28T15:16:25.108Z,36.53
2022-11-28T15:18:59.408Z,44.08
2022-11-28T15:21:28.157Z,44.88
2022-11-28T15:23:56.564Z,49.17
2022-11-28T15:26:30.318Z,45.30
2022-11-28T15:29:11.120Z,44.55
2022-11-28T15:31:38.270Z,47.72
2022-11-28T15:34:09.280Z,46.33
2022-11-28T15:36:37.536Z,44.53
2022-11-28T15:39:05.053Z,51.47
2022-11-28T15:41:32.591Z,47.28
2022-11-28T15:44:00.501Z,47.88
2022-11-28T15:46:33.815Z,42.67
2022-11-28T15:49:01.745Z,45.75
2022-11-28T15:51:32.709Z,51.53
2022-11-28T15:54:00.681Z,48.72
2022-11-28T15:56:28.180Z,47.97
2022-11-28T15:58:55.336Z,52.40
2022-11-28T16:01:26.541Z,38.88
2022-11-28T16:03:57.652Z,45.22
2022-11-28T16:06:27.219Z,59.08
2022-11-28T16:09:00.158Z,42.47
2022-11-28T16:11:28.673Z,50.90
2022-11-28T16:13:58.314Z,52.20
2022-11-28T16:16:28.477Z,47.65
2022-11-28T16:19:01.472Z,50.42
2022-11-28T16:21:31.164Z,50.92
2022-11-28T16:24:00.639Z,47.33
2022-11-28T16:26:34.256Z,43.60
2022-11-28T16:29:07.703Z,45.28
2022-11-28T16:31:35.162Z,51.20
2022-11-28T16:34:03.351Z,46.22
2022-11-28T16:36:31.082Z,44.80
2022-11-28T16:39:16.344Z,44.47
2022-11-28T16:41:51.823Z,42.97
2022-11-28T16:44:22.154Z,46.30
2022-11-28T16:46:53.749Z,45.90
2022-11-28T16:49:32.548Z,57.92
2022-11-28T16:52:21.829Z,43.75
2022-11-28T16:54:49.883Z,51.15
2022-11-28T16:57:19.139Z,38.38
2022-11-28T16:59:47.352Z,50.72
2022-11-28T17:02:17.122Z,44.42
2022-11-28T17:04:46.113Z,46.97
2022-11-28T17:07:18.224Z,48.80
2022-11-28T17:09:47.204Z,38.25
2022-11-28T17:12:19.724Z,54.80
2022-11-28T17:14:47.009Z,39.75
2022-11-28T17:17:15.153Z,51.40
2022-11-28T17:19:42.606Z,50.42
2022-11-28T17:22:21.362Z,53.60
2022-11-28T17:24:49.087Z,52.20
2022-11-28T17:27:16.477Z,54.85
2022-11-28T17:29:44.132Z,48.45
2022-11-28T17:32:12.287Z,53.42
2022-11-28T17:34:41.967Z,54.40
2022-11-28T17:37:09.645Z,53.10
2022-11-28T17:39:36.639Z,50.42
2022-11-28T17:42:04.426Z,50.12
2022-11-28T17:44:34.033Z,62.92
2022-11-28T17:47:02.163Z,52.88
2022-11-28T17:49:30.786Z,58.85
2022-11-28T17:51:58.823Z,51.08
2022-11-28T17:54:26.851Z,53.13
2022-11-28T17:56:54.863Z,53.72
2022-11-28T17:59:24.019Z,45.97
2022-11-28T18:01:51.135Z,61.53
2022-11-28T18:04:22.859Z,49.45
2022-11-28T18:06:50.048Z,45.03
2022-11-28T18:09:17.108Z,59.90
2022-11-28T18:11:46.785Z,45.45
2022-11-28T18:14:14.645Z,52.72
2022-11-28T18:16:43.907Z,51.37
2022-11-28T18:19:11.429Z,66.75
2022-11-28T18:21:39.206Z,55.83
2022-11-28T18:24:06.547Z,54.97
2022-11-28T18:26:33.959Z,61.05
2022-11-28T18:29:00.962Z,63.17
2022-11-28T18:31:29.315Z,62.17
2022-11-28T18:34:02.266Z,59.47
2022-11-28T18:36:34.087Z,64.57
2022-11-28T18:39:11.555Z,56.10
2022-11-28T18:41:39.940Z,60.38
2022-11-28T18:44:08.063Z,61.80
2022-11-28T18:46:35.344Z,56.88
2022-11-28T18:49:03.410Z,70.40
2022-11-28T18:51:35.331Z,63.25
2022-11-28T18:54:04.547Z,54.47
2022-11-28T18:56:33.269Z,60.70
2022-11-28T18:59:00.643Z,50.17
2022-11-28T19:01:30.635Z,50.95
2022-11-28T19:03:59.443Z,45.15
2022-11-28T19:06:27.196Z,38.55
2022-11-28T19:08:57.190Z,58.33
2022-11-28T19:11:24.952Z,44.00
2022-11-28T19:13:53.427Z,45.20
2022-11-28T19:16:26.157Z,63.67
2022-11-28T19:18:53.882Z,52.05
2022-11-28T19:21:23.343Z,45.22
2022-11-28T19:23:51.589Z,53.78
2022-11-28T19:26:21.621Z,54.08
2022-11-28T19:28:49.487Z,54.47
2022-11-28T19:31:28.411Z,53.25
2022-11-28T19:34:01.740Z,54.38
2022-11-28T19:36:32.769Z,60.90
2022-11-28T19:39:00.323Z,56.28
2022-11-28T19:41:28.099Z,42.72
2022-11-28T19:43:55.819Z,50.92
2022-11-28T19:46:23.804Z,43.55
2022-11-28T19:48:51.765Z,60.70
2022-11-28T19:51:19.373Z,53.65
2022-11-28T19:53:46.759Z,56.40
2022-11-28T19:56:16.209Z,53.75
2022-11-28T19:58:44.084Z,61.10
2022-11-28T20:01:17.886Z,51.42
2022-11-28T20:03:47.767Z,49.80
2022-11-28T20:06:17.031Z,40.50
2022-11-28T20:08:45.431Z,54.92
2022-11-28T20:11:15.595Z,55.55
2022-11-28T20:13:44.359Z,59.85
2022-11-28T20:16:13.238Z,57.05
2022-11-28T20:18:42.912Z,48.78
2022-11-28T20:21:17.942Z,56.58
2022-11-28T20:23:49.820Z,48.35
2022-11-28T20:26:18.443Z,50.38
2022-11-28T20:28:47.348Z,56.53
2022-11-28T20:31:30.800Z,51.30
2022-11-28T20:33:58.710Z,56.88
2022-11-28T20:36:27.450Z,51.33
2022-11-28T20:38:55.881Z,52.78
2022-11-28T20:41:25.052Z,60.45
2022-11-28T20:43:52.651Z,55.20
2022-11-28T20:46:22.028Z,62.97
2022-11-28T20:48:49.528Z,56.53
2022-11-28T20:51:19.144Z,62.13
2022-11-28T20:53:46.203Z,54.78
2022-11-28T20:56:19.176Z,56.80
2022-11-28T20:58:46.647Z,53.72
2022-11-28T21:01:34.194Z,49.88
2022-11-28T21:04:02.838Z,59.97
2022-11-28T21:06:30.267Z,55.25
2022-11-28T21:08:57.686Z,54.08
2022-11-28T21:11:55.212Z,60.33
2022-11-28T21:14:15.243Z,56.13
2022-11-28T21:16:42.308Z,59.72
2022-11-28T21:19:09.640Z,63.65
2022-11-28T21:21:39.043Z,62.58
2022-11-28T21:24:12.092Z,59.50
2022-11-28T21:26:43.187Z,60.17
2022-11-28T21:29:11.928Z,56.55
2022-11-28T21:31:44.259Z,52.00
2022-11-28T21:34:16.640Z,50.92
2022-11-28T21:36:44.735Z,55.80
2022-11-28T21:39:13.864Z,60.05
2022-11-28T21:41:40.980Z,53.58
2022-11-28T21:44:08.444Z,54.65
2022-11-28T21:46:35.429Z,52.17
2022-11-28T21:49:02.716Z,47.75
2022-11-28T21:51:30.020Z,61.42
2022-11-28T21:54:00.025Z,54.65
2022-11-28T21:56:27.124Z,66.35
2022-11-28T21:58:54.839Z,67.22
2022-11-28T22:01:22.242Z,51.35
2022-11-28T22:03:49.651Z,50.15
2022-11-28T22:06:24.714Z,59.20
2022-11-28T22:08:53.704Z,55.67
2022-11-28T22:11:22.570Z,56.05
2022-11-28T22:13:50.826Z,44.58
2022-11-28T22:16:26.755Z,39.95
2022-11-28T22:18:55.137Z,48.38
2022-11-28T22:24:10.458Z,66.47
2022-11-28T22:26:38.049Z,45.85
2022-11-28T22:29:05.386Z,54.10
2022-11-28T22:31:32.818Z,40.33
2022-11-28T22:34:00.440Z,55.78
2022-11-28T22:36:27.531Z,61.60
2022-11-28T22:38:56.315Z,52.70
2022-11-28T22:41:28.772Z,44.72
2022-11-28T22:44:02.093Z,53.65
2022-11-28T22:46:30.654Z,57.08
2022-11-28T22:49:02.346Z,53.87
2022-11-28T22:51:31.167Z,51.70
2022-11-28T22:53:59.979Z,72.75
2022-11-28T22:56:28.733Z,56.83
2022-11-28T22:58:57.479Z,75.50
2022-11-28T23:01:28.479Z,70.18
2022-11-28T23:03:56.082Z,76.53
2022-11-28T23:06:25.923Z,98.70
2022-11-28T23:08:54.357Z,96.20
2022-11-28T23:11:24.272Z,179.35
2022-11-28T23:13:52.113Z,120.40
2022-11-28T23:16:22.288Z,115.53
2022-11-28T23:18:56.927Z,126.38
2022-11-28T23:21:25.432Z,132.25
2022-11-28T23:23:53.102Z,106.60
2022-11-28T23:26:23.895Z,110.18
2022-11-28T23:28:52.220Z,229.00
2022-11-28T23:31:20.683Z,137.52
2022-11-28T23:33:48.660Z,169.15
2022-11-28T23:36:20.295Z,148.75
2022-11-28T23:38:49.676Z,170.85
2022-11-28T23:41:16.854Z,117.18
2022-11-28T23:43:44.401Z,116.97
2022-11-28T23:46:13.105Z,142.77
2022-11-28T23:48:40.232Z,155.87
2022-11-28T23:51:07.591Z,148.45
2022-11-28T23:53:35.540Z,152.48
2022-11-28T23:56:07.610Z,160.10
2022-11-28T23:58:35.102Z,138.18
